sensor_id;sensor_type;location;lat;lon;timestamp;pressure;altitude;pressure_sealevel;temperature;humidity
62725;BME280;49026;52.600;4.694;2024-01-16T00:00:24;100879.69;;;1.37;85.27
62725;BME280;49026;52.600;4.694;2024-01-16T00:02:50;100881.41;;;1.38;85.32
62725;BME280;49026;52.600;4.694;2024-01-16T00:05:15;100885.72;;;1.41;85.56
62725;BME280;49026;52.600;4.694;2024-01-16T00:07:40;100877.97;;;1.39;85.02
62725;BME280;49026;52.600;4.694;2024-01-16T00:10:07;100877.97;;;1.39;84.53
62725;BME280;49026;52.600;4.694;2024-01-16T00:12:32;100884.00;;;1.35;84.10
62725;BME280;49026;52.600;4.694;2024-01-16T00:15:00;100874.50;;;1.31;84.83
62725;BME280;49026;52.600;4.694;2024-01-16T00:17:25;100872.78;;;1.27;84.56
62725;BME280;49026;52.600;4.694;2024-01-16T00:19:53;100872.78;;;1.27;84.91
62725;BME280;49026;52.600;4.694;2024-01-16T00:22:18;100874.50;;;1.34;85.58
62725;BME280;49026;52.600;4.694;2024-01-16T00:24:43;100868.44;;;1.41;85.83
62725;BME280;49026;52.600;4.694;2024-01-16T00:27:08;100855.50;;;1.51;86.31
62725;BME280;49026;52.600;4.694;2024-01-16T00:29:34;100858.88;;;1.65;85.84
62725;BME280;49026;52.600;4.694;2024-01-16T00:31:59;100849.38;;;1.76;84.27
62725;BME280;49026;52.600;4.694;2024-01-16T00:34:27;100840.69;;;1.82;83.77
62725;BME280;49026;52.600;4.694;2024-01-16T00:36:52;100852.78;;;1.83;83.69
62725;BME280;49026;52.600;4.694;2024-01-16T00:39:17;100856.28;;;1.79;83.61
62725;BME280;49026;52.600;4.694;2024-01-16T00:41:43;100851.13;;;1.70;83.51
62725;BME280;49026;52.600;4.694;2024-01-16T00:44:08;100858.91;;;1.62;83.83
62725;BME280;49026;52.600;4.694;2024-01-16T00:46:36;100851.16;;;1.59;84.45
62725;BME280;49026;52.600;4.694;2024-01-16T00:49:03;100861.47;;;1.70;83.92
62725;BME280;49026;52.600;4.694;2024-01-16T00:51:28;100861.47;;;1.79;82.74
62725;BME280;49026;52.600;4.694;2024-01-16T00:53:54;100872.63;;;1.87;83.75
62725;BME280;49026;52.600;4.694;2024-01-16T00:56:21;100876.94;;;1.94;84.57
62725;BME280;49026;52.600;4.694;2024-01-16T00:58:47;100882.97;;;1.98;84.10
62725;BME280;49026;52.600;4.694;2024-01-16T01:01:12;100883.81;;;2.01;83.84
62725;BME280;49026;52.600;4.694;2024-01-16T01:03:37;100884.72;;;1.96;84.26
62725;BME280;49026;52.600;4.694;2024-01-16T01:06:07;100875.22;;;1.89;84.32
62725;BME280;49026;52.600;4.694;2024-01-16T01:08:33;100890.81;;;1.84;85.06
62725;BME280;49026;52.600;4.694;2024-01-16T01:11:06;100896.88;;;1.72;84.61
62725;BME280;49026;52.600;4.694;2024-01-16T01:13:31;100902.09;;;1.60;85.13
62725;BME280;49026;52.600;4.694;2024-01-16T01:15:59;100900.38;;;1.46;85.83
62725;BME280;49026;52.600;4.694;2024-01-16T01:18:25;100907.28;;;1.49;85.86
62725;BME280;49026;52.600;4.694;2024-01-16T01:20:53;100893.47;;;1.52;86.20
62725;BME280;49026;52.600;4.694;2024-01-16T01:23:18;100879.66;;;1.56;86.13
62725;BME280;49026;52.600;4.694;2024-01-16T01:25:46;100882.25;;;1.57;85.01
62725;BME280;49026;52.600;4.694;2024-01-16T01:28:13;100893.47;;;1.53;85.25
62725;BME280;49026;52.600;4.694;2024-01-16T01:30:41;100877.06;;;1.45;84.70
62725;BME280;49026;52.600;4.694;2024-01-16T01:33:07;100890.03;;;1.42;85.14
62725;BME280;49026;52.600;4.694;2024-01-16T01:35:32;100889.16;;;1.40;84.26
62725;BME280;49026;52.600;4.694;2024-01-16T01:37:57;100888.31;;;1.36;84.57
62725;BME280;49026;52.600;4.694;2024-01-16T01:40:23;100892.66;;;1.36;84.45
62725;BME280;49026;52.600;4.694;2024-01-16T01:42:48;100886.56;;;1.35;83.88
62725;BME280;49026;52.600;4.694;2024-01-16T01:45:16;100885.72;;;1.33;84.20
62725;BME280;49026;52.600;4.694;2024-01-16T01:47:42;100891.78;;;1.32;83.97
62725;BME280;49026;52.600;4.694;2024-01-16T01:50:08;100889.16;;;1.35;83.59
62725;BME280;49026;52.600;4.694;2024-01-16T01:52:34;100887.47;;;1.34;83.63
62725;BME280;49026;52.600;4.694;2024-01-16T01:55:01;100887.47;;;1.37;83.20
62725;BME280;49026;52.600;4.694;2024-01-16T01:57:27;100892.66;;;1.34;83.69
62725;BME280;49026;52.600;4.694;2024-01-16T01:59:52;100894.34;;;1.34;83.93
62725;BME280;49026;52.600;4.694;2024-01-16T02:02:18;100888.31;;;1.36;83.44
62725;BME280;49026;52.600;4.694;2024-01-16T02:04:45;100893.50;;;1.39;83.94
62725;BME280;49026;52.600;4.694;2024-01-16T02:07:11;100900.38;;;1.43;83.76
62725;BME280;49026;52.600;4.694;2024-01-16T02:09:37;100899.53;;;1.51;83.60
62725;BME280;49026;52.600;4.694;2024-01-16T02:12:05;100896.91;;;1.60;83.85
62725;BME280;49026;52.600;4.694;2024-01-16T02:14:32;100903.81;;;1.48;84.70
62725;BME280;49026;52.600;4.694;2024-01-16T02:16:57;100904.72;;;1.26;85.21
62725;BME280;49026;52.600;4.694;2024-01-16T02:19:27;100913.34;;;1.00;86.72
62725;BME280;49026;52.600;4.694;2024-01-16T02:21:54;100902.13;;;0.77;87.65
62725;BME280;49026;52.600;4.694;2024-01-16T02:24:23;100885.72;;;0.58;88.03
62725;BME280;49026;52.600;4.694;2024-01-16T02:26:49;100883.97;;;0.44;87.83
62725;BME280;49026;52.600;4.694;2024-01-16T02:29:14;100876.19;;;0.35;88.00
62725;BME280;49026;52.600;4.694;2024-01-16T02:31:41;100884.78;;;0.26;88.08
62725;BME280;49026;52.600;4.694;2024-01-16T02:34:06;100878.72;;;0.20;88.29
62725;BME280;49026;52.600;4.694;2024-01-16T02:36:32;100877.00;;;0.15;88.24
62725;BME280;49026;52.600;4.694;2024-01-16T02:38:57;100881.31;;;0.12;88.32
62725;BME280;49026;52.600;4.694;2024-01-16T02:41:22;100881.31;;;0.12;88.20
62725;BME280;49026;52.600;4.694;2024-01-16T02:43:48;100883.00;;;0.08;88.29
62725;BME280;49026;52.600;4.694;2024-01-16T02:46:16;100875.25;;;0.10;87.94
62725;BME280;49026;52.600;4.694;2024-01-16T02:48:43;100879.56;;;0.11;87.85
62725;BME280;49026;52.600;4.694;2024-01-16T02:51:11;100871.81;;;0.11;88.07
62725;BME280;49026;52.600;4.694;2024-01-16T02:53:36;100876.13;;;0.15;87.97
62725;BME280;49026;52.600;4.694;2024-01-16T02:56:02;100871.84;;;0.23;87.73
62725;BME280;49026;52.600;4.694;2024-01-16T02:58:28;100872.72;;;0.31;87.96
62725;BME280;49026;52.600;4.694;2024-01-16T03:00:57;100861.56;;;0.37;87.81
62725;BME280;49026;52.600;4.694;2024-01-16T03:03:23;100858.97;;;0.45;87.59
62725;BME280;49026;52.600;4.694;2024-01-16T03:05:49;100852.97;;;0.47;87.55
62725;BME280;49026;52.600;4.694;2024-01-16T03:08:17;100847.81;;;0.52;87.45
62725;BME280;49026;52.600;4.694;2024-01-16T03:10:45;100846.94;;;0.56;87.09
62725;BME280;49026;52.600;4.694;2024-01-16T03:13:12;100842.63;;;0.61;87.35
62725;BME280;49026;52.600;4.694;2024-01-16T03:15:38;100852.09;;;0.68;87.15
62725;BME280;49026;52.600;4.694;2024-01-16T03:18:04;100852.13;;;0.74;87.51
62725;BME280;49026;52.600;4.694;2024-01-16T03:20:29;100853.84;;;0.82;87.75
62725;BME280;49026;52.600;4.694;2024-01-16T03:22:54;100864.19;;;0.94;87.71
62725;BME280;49026;52.600;4.694;2024-01-16T03:25:20;100876.28;;;1.10;87.72
62725;BME280;49026;52.600;4.694;2024-01-16T03:27:46;100867.63;;;1.18;87.95
62725;BME280;49026;52.600;4.694;2024-01-16T03:30:12;100881.44;;;1.10;87.58
62725;BME280;49026;52.600;4.694;2024-01-16T03:32:37;100865.94;;;0.92;87.64
62725;BME280;49026;52.600;4.694;2024-01-16T03:35:04;100865.91;;;0.77;88.06
62725;BME280;49026;52.600;4.694;2024-01-16T03:37:29;100867.66;;;0.65;88.18
62725;BME280;49026;52.600;4.694;2024-01-16T03:39:55;100864.19;;;0.57;88.78
62725;BME280;49026;52.600;4.694;2024-01-16T03:42:21;100861.59;;;0.55;88.67
62725;BME280;49026;52.600;4.694;2024-01-16T03:44:46;100855.53;;;0.55;88.77
62725;BME280;49026;52.600;4.694;2024-01-16T03:47:11;100846.06;;;0.54;88.52
62725;BME280;49026;52.600;4.694;2024-01-16T03:49:37;100845.19;;;0.53;88.29
62725;BME280;49026;52.600;4.694;2024-01-16T03:52:03;100846.94;;;0.56;88.06
62725;BME280;49026;52.600;4.694;2024-01-16T03:54:28;100846.06;;;0.54;88.01
62725;BME280;49026;52.600;4.694;2024-01-16T03:56:56;100835.72;;;0.52;87.93
62725;BME280;49026;52.600;4.694;2024-01-16T03:59:21;100840.91;;;0.55;87.89
62725;BME280;49026;52.600;4.694;2024-01-16T04:01:46;100835.72;;;0.54;87.73
62725;BME280;49026;52.600;4.694;2024-01-16T04:04:13;100843.47;;;0.60;87.79
62725;BME280;49026;52.600;4.694;2024-01-16T04:06:38;100847.81;;;0.63;87.54
62725;BME280;49026;52.600;4.694;2024-01-16T04:09:04;100845.22;;;0.61;87.50
62725;BME280;49026;52.600;4.694;2024-01-16T04:11:30;100845.19;;;0.58;87.23
62725;BME280;49026;52.600;4.694;2024-01-16T04:13:58;100840.03;;;0.58;87.13
62725;BME280;49026;52.600;4.694;2024-01-16T04:16:23;100832.28;;;0.58;87.38
62725;BME280;49026;52.600;4.694;2024-01-16T04:18:48;100841.75;;;0.59;87.14
62725;BME280;49026;52.600;4.694;2024-01-16T04:21:14;100838.28;;;0.60;86.87
62725;BME280;49026;52.600;4.694;2024-01-16T04:23:41;100835.72;;;0.60;87.09
62725;BME280;49026;52.600;4.694;2024-01-16T04:26:09;100846.06;;;0.63;86.54
62725;BME280;49026;52.600;4.694;2024-01-16T04:28:35;100836.59;;;0.68;86.87
62725;BME280;49026;52.600;4.694;2024-01-16T04:31:02;100832.28;;;0.70;86.28
62725;BME280;49026;52.600;4.694;2024-01-16T04:33:28;100838.31;;;0.72;86.70
62725;BME280;49026;52.600;4.694;2024-01-16T04:35:56;100836.59;;;0.76;86.33
62725;BME280;49026;52.600;4.694;2024-01-16T04:38:21;100823.69;;;0.85;86.85
62725;BME280;49026;52.600;4.694;2024-01-16T04:40:47;100820.22;;;0.97;86.48
62725;BME280;49026;52.600;4.694;2024-01-16T04:43:12;100831.38;;;1.07;86.49
62725;BME280;49026;52.600;4.694;2024-01-16T04:45:40;100823.63;;;1.13;85.63
62725;BME280;49026;52.600;4.694;2024-01-16T04:48:05;100818.44;;;1.22;85.77
62725;BME280;49026;52.600;4.694;2024-01-16T04:50:30;100826.19;;;1.33;86.47
62725;BME280;49026;52.600;4.694;2024-01-16T04:53:01;100821.84;;;1.38;86.42
62725;BME280;49026;52.600;4.694;2024-01-16T04:55:27;100822.72;;;1.37;86.68
62725;BME280;49026;52.600;4.694;2024-01-16T04:57:54;100824.44;;;1.34;86.46
62725;BME280;49026;52.600;4.694;2024-01-16T05:00:19;100821.88;;;1.32;87.53
62725;BME280;49026;52.600;4.694;2024-01-16T05:02:47;100827.91;;;1.31;88.28
62725;BME280;49026;52.600;4.694;2024-01-16T05:05:16;100825.31;;;1.31;88.29
62725;BME280;49026;52.600;4.694;2024-01-16T05:07:41;100833.09;;;1.31;88.36
62725;BME280;49026;52.600;4.694;2024-01-16T05:10:09;100829.66;;;1.32;88.58
62725;BME280;49026;52.600;4.694;2024-01-16T05:12:35;100822.72;;;1.37;88.83
62725;BME280;49026;52.600;4.694;2024-01-16T05:15:01;100813.22;;;1.42;88.52
62725;BME280;49026;52.600;4.694;2024-01-16T05:17:28;100818.41;;;1.44;88.16
62725;BME280;49026;52.600;4.694;2024-01-16T05:19:54;100823.59;;;1.42;88.33
62725;BME280;49026;52.600;4.694;2024-01-16T05:22:19;100820.09;;;1.43;88.59
62725;BME280;49026;52.600;4.694;2024-01-16T05:24:48;100813.22;;;1.39;88.49
62725;BME280;49026;52.600;4.694;2024-01-16T05:27:14;100812.38;;;1.37;88.55
62725;BME280;49026;52.600;4.694;2024-01-16T05:29:42;100804.59;;;1.36;89.21
62725;BME280;49026;52.600;4.694;2024-01-16T05:32:07;100799.44;;;1.34;89.23
62725;BME280;49026;52.600;4.694;2024-01-16T05:34:35;100796.84;;;1.31;88.90
62725;BME280;49026;52.600;4.694;2024-01-16T05:37:01;100789.94;;;1.28;89.53
62725;BME280;49026;52.600;4.694;2024-01-16T05:39:26;100789.09;;;1.31;89.40
62725;BME280;49026;52.600;4.694;2024-01-16T05:41:52;100784.75;;;1.32;89.46
62725;BME280;49026;52.600;4.694;2024-01-16T05:44:17;100789.06;;;1.34;89.45
62725;BME280;49026;52.600;4.694;2024-01-16T05:46:45;100778.69;;;1.40;89.09
62725;BME280;49026;52.600;4.694;2024-01-16T05:49:12;100783.00;;;1.46;88.85
62725;BME280;49026;52.600;4.694;2024-01-16T05:51:37;100793.34;;;1.47;88.08
62725;BME280;49026;52.600;4.694;2024-01-16T05:54:05;100788.16;;;1.51;88.35
62725;BME280;49026;52.600;4.694;2024-01-16T05:56:31;100788.13;;;1.54;88.27
62725;BME280;49026;52.600;4.694;2024-01-16T05:58:59;100790.72;;;1.58;88.00
62725;BME280;49026;52.600;4.694;2024-01-16T06:01:24;100769.13;;;1.64;87.52
62725;BME280;49026;52.600;4.694;2024-01-16T06:03:50;100801.91;;;1.62;87.56
62725;BME280;49026;52.600;4.694;2024-01-16T06:06:18;100807.13;;;1.53;87.56
62725;BME280;49026;52.600;4.694;2024-01-16T06:08:44;100805.47;;;1.32;87.71
62725;BME280;49026;52.600;4.694;2024-01-16T06:11:09;100807.25;;;1.17;88.00
62725;BME280;49026;52.600;4.694;2024-01-16T06:13:39;100816.75;;;0.97;88.46
62725;BME280;49026;52.600;4.694;2024-01-16T06:16:08;100821.94;;;0.80;88.88
62725;BME280;49026;52.600;4.694;2024-01-16T06:18:34;100812.47;;;0.69;89.32
62725;BME280;49026;52.600;4.694;2024-01-16T06:21:02;100795.22;;;0.62;89.54
62725;BME280;49026;52.600;4.694;2024-01-16T06:23:28;100801.22;;;0.55;90.06
62725;BME280;49026;52.600;4.694;2024-01-16T06:25:54;100790.91;;;0.49;90.27
62725;BME280;49026;52.600;4.694;2024-01-16T06:28:19;100795.22;;;0.44;89.71
62725;BME280;49026;52.600;4.694;2024-01-16T06:30:47;100785.72;;;0.40;89.77
62725;BME280;49026;52.600;4.694;2024-01-16T06:33:12;100780.56;;;0.40;89.64
62725;BME280;49026;52.600;4.694;2024-01-16T06:35:37;100792.63;;;0.41;89.80
62725;BME280;49026;52.600;4.694;2024-01-16T06:38:03;100793.50;;;0.46;89.68
62725;BME280;49026;52.600;4.694;2024-01-16T06:40:30;100786.59;;;0.52;89.72
62725;BME280;49026;52.600;4.694;2024-01-16T06:42:56;100781.44;;;0.57;89.38
62725;BME280;49026;52.600;4.694;2024-01-16T06:45:21;100786.59;;;0.62;89.67
62725;BME280;49026;52.600;4.694;2024-01-16T06:47:46;100778.84;;;0.68;89.51
62725;BME280;49026;52.600;4.694;2024-01-16T06:50:11;100777.94;;;0.73;90.03
62725;BME280;49026;52.600;4.694;2024-01-16T06:52:37;100778.81;;;0.82;89.42
62725;BME280;49026;52.600;4.694;2024-01-16T06:55:02;100777.06;;;0.90;89.49
62725;BME280;49026;52.600;4.694;2024-01-16T06:57:27;100787.44;;;0.96;89.83
62725;BME280;49026;52.600;4.694;2024-01-16T06:59:53;100788.28;;;0.98;89.68
62725;BME280;49026;52.600;4.694;2024-01-16T07:02:18;100786.56;;;0.97;89.52
62725;BME280;49026;52.600;4.694;2024-01-16T07:04:46;100784.84;;;0.96;89.80
62725;BME280;49026;52.600;4.694;2024-01-16T07:07:13;100793.44;;;0.97;90.24
62725;BME280;49026;52.600;4.694;2024-01-16T07:09:39;100796.94;;;0.97;90.81
62725;BME280;49026;52.600;4.694;2024-01-16T07:12:04;100800.38;;;0.99;90.71
62725;BME280;49026;52.600;4.694;2024-01-16T07:14:32;100806.41;;;0.98;90.83
62725;BME280;49026;52.600;4.694;2024-01-16T07:16:57;100810.72;;;0.99;91.58
62725;BME280;49026;52.600;4.694;2024-01-16T07:19:24;100809.88;;;0.96;91.14
62725;BME280;49026;52.600;4.694;2024-01-16T07:21:49;100821.94;;;0.90;91.86
62725;BME280;49026;52.600;4.694;2024-01-16T07:24:16;100817.63;;;0.85;91.68
62725;BME280;49026;52.600;4.694;2024-01-16T07:26:42;100827.13;;;0.72;92.10
62725;BME280;49026;52.600;4.694;2024-01-16T07:29:07;100833.13;;;0.60;91.56
62725;BME280;49026;52.600;4.694;2024-01-16T07:31:32;100836.59;;;0.42;91.37
62725;BME280;49026;52.600;4.694;2024-01-16T07:34:00;100837.38;;;0.21;91.72
62725;BME280;49026;52.600;4.694;2024-01-16T07:36:25;100836.50;;;0.04;91.31
62725;BME280;49026;52.600;4.694;2024-01-16T07:38:50;100826.97;;;-0.08;91.72
62725;BME280;49026;52.600;4.694;2024-01-16T07:41:16;100823.50;;;-0.20;91.98
62725;BME280;49026;52.600;4.694;2024-01-16T07:43:44;100834.66;;;-0.25;92.26
62725;BME280;49026;52.600;4.694;2024-01-16T07:46:09;100832.91;;;-0.32;92.12
62725;BME280;49026;52.600;4.694;2024-01-16T07:48:35;100838.03;;;-0.35;91.99
62725;BME280;49026;52.600;4.694;2024-01-16T07:51:01;100841.50;;;-0.36;92.18
62725;BME280;49026;52.600;4.694;2024-01-16T07:53:26;100834.59;;;-0.39;92.82
62725;BME280;49026;52.600;4.694;2024-01-16T07:55:53;100824.22;;;-0.44;93.08
62725;BME280;49026;52.600;4.694;2024-01-16T07:58:19;100820.81;;;-0.43;92.53
62725;BME280;49026;52.600;4.694;2024-01-16T08:00:44;100814.78;;;-0.45;92.30
62725;BME280;49026;52.600;4.694;2024-01-16T08:03:12;100815.66;;;-0.43;92.35
62725;BME280;49026;52.600;4.694;2024-01-16T08:05:39;100819.09;;;-0.41;92.21
62725;BME280;49026;52.600;4.694;2024-01-16T08:08:05;100822.56;;;-0.35;92.28
62725;BME280;49026;52.600;4.694;2024-01-16T08:10:30;100828.59;;;-0.32;92.37
62725;BME280;49026;52.600;4.694;2024-01-16T08:12:56;100819.16;;;-0.28;92.40
62725;BME280;49026;52.600;4.694;2024-01-16T08:15:21;100822.59;;;-0.26;92.28
62725;BME280;49026;52.600;4.694;2024-01-16T08:17:47;100832.06;;;-0.22;92.43
62725;BME280;49026;52.600;4.694;2024-01-16T08:20:15;100827.78;;;-0.17;92.31
62725;BME280;49026;52.600;4.694;2024-01-16T08:22:41;100822.66;;;-0.09;92.13
62725;BME280;49026;52.600;4.694;2024-01-16T08:25:07;100831.31;;;0.01;92.64
62725;BME280;49026;52.600;4.694;2024-01-16T08:27:33;100827.91;;;0.14;92.17
62725;BME280;49026;52.600;4.694;2024-01-16T08:29:59;100815.88;;;0.22;92.63
62725;BME280;49026;52.600;4.694;2024-01-16T08:32:24;100808.97;;;0.29;92.39
62725;BME280;49026;52.600;4.694;2024-01-16T08:34:51;100804.69;;;0.39;92.20
62725;BME280;49026;52.600;4.694;2024-01-16T08:37:17;100810.72;;;0.47;92.67
62725;BME280;49026;52.600;4.694;2024-01-16T08:39:42;100809.88;;;0.54;92.69
62725;BME280;49026;52.600;4.694;2024-01-16T08:42:08;100819.34;;;0.61;92.24
62725;BME280;49026;52.600;4.694;2024-01-16T08:44:37;100803.84;;;0.70;92.83
62725;BME280;49026;52.600;4.694;2024-01-16T08:47:02;100803.81;;;0.80;92.36
62725;BME280;49026;52.600;4.694;2024-01-16T08:49:29;100809.84;;;0.86;92.16
62725;BME280;49026;52.600;4.694;2024-01-16T08:51:57;100812.44;;;0.91;92.42
62725;BME280;49026;52.600;4.694;2024-01-16T08:54:25;100803.81;;;0.95;91.65
62725;BME280;49026;52.600;4.694;2024-01-16T08:56:51;100803.81;;;0.98;91.93
62725;BME280;49026;52.600;4.694;2024-01-16T08:59:16;100804.66;;;1.02;91.24
62725;BME280;49026;52.600;4.694;2024-01-16T09:01:41;100795.19;;;1.05;90.58
62725;BME280;49026;52.600;4.694;2024-01-16T09:04:07;100802.06;;;1.09;90.21
62725;BME280;49026;52.600;4.694;2024-01-16T09:06:32;100800.34;;;1.15;90.06
62725;BME280;49026;52.600;4.694;2024-01-16T09:09:00;100793.41;;;1.20;89.76
62725;BME280;49026;52.600;4.694;2024-01-16T09:11:25;100803.78;;;1.26;89.48
62725;BME280;49026;52.600;4.694;2024-01-16T09:13:51;100805.47;;;1.30;89.08
62725;BME280;49026;52.600;4.694;2024-01-16T09:16:16;100792.53;;;1.35;88.63
62725;BME280;49026;52.600;4.694;2024-01-16T09:18:42;100798.53;;;1.41;88.66
62725;BME280;49026;52.600;4.694;2024-01-16T09:21:07;100795.94;;;1.47;88.13
62725;BME280;49026;52.600;4.694;2024-01-16T09:23:35;100787.28;;;1.53;87.62
62725;BME280;49026;52.600;4.694;2024-01-16T09:26:00;100782.94;;;1.57;87.29
62725;BME280;49026;52.600;4.694;2024-01-16T09:28:25;100787.25;;;1.61;87.62
62725;BME280;49026;52.600;4.694;2024-01-16T09:30:53;100792.38;;;1.67;87.40
62725;BME280;49026;52.600;4.694;2024-01-16T09:33:21;100796.69;;;1.74;86.71
62725;BME280;49026;52.600;4.694;2024-01-16T09:35:50;100803.56;;;1.78;86.78
62725;BME280;49026;52.600;4.694;2024-01-16T09:38:15;100798.38;;;1.80;86.94
62725;BME280;49026;52.600;4.694;2024-01-16T09:40:41;100778.56;;;1.79;86.44
62725;BME280;49026;52.600;4.694;2024-01-16T09:43:06;100793.22;;;1.78;86.38
62725;BME280;49026;52.600;4.694;2024-01-16T09:45:37;100795.78;;;1.80;86.63
62725;BME280;49026;52.600;4.694;2024-01-16T09:48:08;100794.94;;;1.84;85.46
62725;BME280;49026;52.600;4.694;2024-01-16T09:50:38;100792.28;;;1.87;85.06
62725;BME280;49026;52.600;4.694;2024-01-16T09:53:03;100794.88;;;1.93;83.54
62725;BME280;49026;52.600;4.694;2024-01-16T09:55:29;100794.84;;;1.98;83.37
62725;BME280;49026;52.600;4.694;2024-01-16T09:57:54;100788.75;;;2.07;83.12
62725;BME280;49026;52.600;4.694;2024-01-16T10:00:20;100791.28;;;2.17;81.47
62725;BME280;49026;52.600;4.694;2024-01-16T10:02:46;100797.22;;;2.35;82.53
62725;BME280;49026;52.600;4.694;2024-01-16T10:05:14;100783.25;;;2.53;81.24
62725;BME280;49026;52.600;4.694;2024-01-16T10:07:40;100790.81;;;2.79;82.42
62725;BME280;49026;52.600;4.694;2024-01-16T10:10:08;100788.91;;;3.00;82.50
62725;BME280;49026;52.600;4.694;2024-01-16T10:12:37;100785.47;;;2.97;82.17
62725;BME280;49026;52.600;4.694;2024-01-16T10:15:05;100784.59;;;2.95;83.03
62725;BME280;49026;52.600;4.694;2024-01-16T10:17:40;100777.69;;;2.94;83.33
62725;BME280;49026;52.600;4.694;2024-01-16T10:20:07;100764.59;;;3.07;83.30
62725;BME280;49026;52.600;4.694;2024-01-16T10:22:33;100767.69;;;3.40;83.38
62725;BME280;49026;52.600;4.694;2024-01-16T10:25:09;100772.97;;;3.32;81.44
62725;BME280;49026;52.600;4.694;2024-01-16T10:27:35;100765.22;;;3.27;83.33
62725;BME280;49026;52.600;4.694;2024-01-16T10:30:01;100765.88;;;3.48;83.59
62725;BME280;49026;52.600;4.694;2024-01-16T10:32:33;100764.94;;;3.53;83.37
62725;BME280;49026;52.600;4.694;2024-01-16T10:35:07;100766.09;;;3.29;81.95
62725;BME280;49026;52.600;4.694;2024-01-16T10:40:14;100768.13;;;3.00;83.51
62725;BME280;49026;52.600;4.694;2024-01-16T10:42:40;100750.91;;;2.92;83.90
62725;BME280;49026;52.600;4.694;2024-01-16T10:45:06;100761.34;;;2.86;82.49
62725;BME280;49026;52.600;4.694;2024-01-16T10:47:32;100758.78;;;2.82;82.58
62725;BME280;49026;52.600;4.694;2024-01-16T10:50:02;100770.06;;;2.79;83.52
62725;BME280;49026;52.600;4.694;2024-01-16T10:52:28;100758.81;;;2.78;81.90
62725;BME280;49026;52.600;4.694;2024-01-16T10:54:57;100749.25;;;2.81;79.57
62725;BME280;49026;52.600;4.694;2024-01-16T10:57:25;100744.94;;;2.83;80.09
62725;BME280;49026;52.600;4.694;2024-01-16T11:02:24;100750.78;;;3.02;81.66
62725;BME280;49026;52.600;4.694;2024-01-16T11:04:55;100741.06;;;3.21;81.07
62725;BME280;49026;52.600;4.694;2024-01-16T11:07:23;100740.97;;;3.28;80.88
62725;BME280;49026;52.600;4.694;2024-01-16T11:09:51;100750.41;;;3.36;79.89
62725;BME280;49026;52.600;4.694;2024-01-16T11:12:18;100744.44;;;3.29;79.29
62725;BME280;49026;52.600;4.694;2024-01-16T11:14:49;100747.97;;;3.22;80.18
62725;BME280;49026;52.600;4.694;2024-01-16T11:17:21;100739.34;;;3.20;79.92
62725;BME280;49026;52.600;4.694;2024-01-16T11:19:47;100726.25;;;3.27;79.46
62725;BME280;49026;52.600;4.694;2024-01-16T11:22:14;100728.00;;;3.28;79.87
62725;BME280;49026;52.600;4.694;2024-01-16T11:24:41;100720.13;;;3.34;79.77
62725;BME280;49026;52.600;4.694;2024-01-16T11:27:22;100720.09;;;4.01;79.86
62725;BME280;49026;52.600;4.694;2024-01-16T11:29:52;100724.16;;;4.19;78.43
62725;BME280;49026;52.600;4.694;2024-01-16T11:32:35;100721.75;;;4.05;79.44
62725;BME280;49026;52.600;4.694;2024-01-16T11:35:05;100715.91;;;4.45;79.77
62725;BME280;49026;52.600;4.694;2024-01-16T11:37:34;100717.69;;;5.38;77.76
62725;BME280;49026;52.600;4.694;2024-01-16T11:42:44;100716.44;;;6.67;77.19
62725;BME280;49026;52.600;4.694;2024-01-16T11:50:37;100714.97;;;6.21;77.21
62725;BME280;49026;52.600;4.694;2024-01-16T11:53:05;100721.38;;;6.45;77.67
62725;BME280;49026;52.600;4.694;2024-01-16T11:55:35;100717.63;;;6.20;75.78
62725;BME280;49026;52.600;4.694;2024-01-16T12:00:54;100714.75;;;5.10;78.18
62725;BME280;49026;52.600;4.694;2024-01-16T12:03:22;100706.44;;;4.91;77.09
62725;BME280;49026;52.600;4.694;2024-01-16T12:05:55;100704.63;;;5.79;78.77
62725;BME280;49026;52.600;4.694;2024-01-16T12:08:21;100708.75;;;6.28;76.14
62725;BME280;49026;52.600;4.694;2024-01-16T12:10:47;100690.81;;;6.49;72.84
62725;BME280;49026;52.600;4.694;2024-01-16T12:13:15;100693.50;;;6.46;70.88
62725;BME280;49026;52.600;4.694;2024-01-16T12:15:44;100695.41;;;6.39;74.74
62725;BME280;49026;52.600;4.694;2024-01-16T12:18:09;100692.25;;;6.26;72.06
62725;BME280;49026;52.600;4.694;2024-01-16T12:20:38;100686.38;;;6.18;71.98
62725;BME280;49026;52.600;4.694;2024-01-16T12:23:08;100694.94;;;5.84;72.48
62725;BME280;49026;52.600;4.694;2024-01-16T12:25:40;100697.78;;;5.33;71.96
62725;BME280;49026;52.600;4.694;2024-01-16T12:28:07;100693.03;;;5.53;71.46
62725;BME280;49026;52.600;4.694;2024-01-16T12:30:37;100671.78;;;6.09;71.94
62725;BME280;49026;52.600;4.694;2024-01-16T12:33:06;100674.81;;;6.61;70.81
62725;BME280;49026;52.600;4.694;2024-01-16T12:35:43;100670.75;;;6.84;68.05
62725;BME280;49026;52.600;4.694;2024-01-16T12:38:12;100682.22;;;7.10;67.04
62725;BME280;49026;52.600;4.694;2024-01-16T12:40:48;100677.97;;;7.07;66.91
62725;BME280;49026;52.600;4.694;2024-01-16T12:43:16;100671.53;;;6.88;66.80
62725;BME280;49026;52.600;4.694;2024-01-16T12:45:42;100666.38;;;6.84;66.19
62725;BME280;49026;52.600;4.694;2024-01-16T12:48:09;100675.94;;;6.85;65.39
62725;BME280;49026;52.600;4.694;2024-01-16T12:50:34;100674.09;;;7.20;67.32
62725;BME280;49026;52.600;4.694;2024-01-16T12:53:11;100672.41;;;7.48;67.67
62725;BME280;49026;52.600;4.694;2024-01-16T12:55:38;100674.16;;;7.49;65.61
62725;BME280;49026;52.600;4.694;2024-01-16T12:58:22;100669.97;;;7.41;65.28
62725;BME280;49026;52.600;4.694;2024-01-16T13:00:53;100673.97;;;7.25;66.82
62725;BME280;49026;52.600;4.694;2024-01-16T13:03:24;100664.50;;;6.24;64.84
62725;BME280;49026;52.600;4.694;2024-01-16T13:05:57;100672.97;;;5.94;67.35
62725;BME280;49026;52.600;4.694;2024-01-16T13:08:23;100664.66;;;5.39;68.28
62725;BME280;49026;52.600;4.694;2024-01-16T13:11:07;100670.81;;;5.37;67.66
62725;BME280;49026;52.600;4.694;2024-01-16T13:13:33;100654.81;;;5.91;67.70